Terminal Aerodrome Forecast
Issued by NWS St Louis, MO

Home | Current Version | Previous Version | Text Only | Print | Product List | Glossary On
Versions: 1 2 3 4 5 6 7 8 9 10 11 12 13 14 15 16 17 18 19 20 21 22 23 24
000
FTUS43 KLSX 190200 AAA
TAFSTL
TAF AMD
KSTL 190253Z 1903/2006 12008KT P6SM SCT050 BKN200
     FM190900 08005KT 6SM -RA BR OVC040
     FM191300 36006KT 3SM -RA BR OVC030
     FM191900 30009KT P6SM VCTS BKN040CB
     FM192300 24008KT P6SM SCT040 BKN150=

USA.gov is the U.S. government's official web portal to all federal, state and local government web resources and services.